createdAt,value
2023-05-11T00:01:33.766Z,2.43
2023-05-11T00:04:00.918Z,2.90
2023-05-11T00:06:27.771Z,3.10
2023-05-11T00:08:54.594Z,2.63
2023-05-11T00:11:21.315Z,3.53
2023-05-11T00:13:48.010Z,4.20
2023-05-11T00:16:15.013Z,2.63
2023-05-11T00:18:41.870Z,3.37
2023-05-11T00:21:08.689Z,3.13
2023-05-11T00:23:35.404Z,4.37
2023-05-11T00:26:02.066Z,5.73
2023-05-11T00:28:28.720Z,4.07
2023-05-11T00:30:58.897Z,2.43
2023-05-11T00:33:26.076Z,2.70
2023-05-11T00:35:52.886Z,2.73
2023-05-11T00:38:19.673Z,2.53
2023-05-11T00:40:46.353Z,3.00
2023-05-11T00:43:13.512Z,5.03
2023-05-11T00:45:40.515Z,3.80
2023-05-11T00:48:07.573Z,2.97
2023-05-11T00:50:36.107Z,3.67
2023-05-11T00:53:03.355Z,4.13
2023-05-11T00:55:30.573Z,3.90
2023-05-11T00:57:57.623Z,4.10
2023-05-11T01:00:24.573Z,4.03
2023-05-11T01:02:52.110Z,5.67
2023-05-11T01:05:19.321Z,6.77
2023-05-11T01:08:01.792Z,4.77
2023-05-11T01:10:33.431Z,5.93
2023-05-11T01:13:42.730Z,5.80
2023-05-11T01:16:17.474Z,6.93
2023-05-11T01:19:12.606Z,7.77
2023-05-11T01:21:40.015Z,6.97
2023-05-11T01:24:09.792Z,7.20
2023-05-11T01:26:39.779Z,7.57
2023-05-11T01:29:25.433Z,7.80
2023-05-11T01:31:55.805Z,6.90
2023-05-11T01:34:25.535Z,10.93
2023-05-11T01:37:05.086Z,12.73
2023-05-11T01:39:38.378Z,13.17
2023-05-11T01:42:09.940Z,14.73
2023-05-11T01:44:42.297Z,20.73
2023-05-11T01:47:11.928Z,20.07
2023-05-11T01:49:42.346Z,21.80
2023-05-11T01:52:09.805Z,19.37
2023-05-11T01:54:38.963Z,22.27
2023-05-11T01:57:06.970Z,23.13
2023-05-11T01:59:35.807Z,21.73
2023-05-11T02:02:04.022Z,21.53
2023-05-11T02:04:31.749Z,21.47
2023-05-11T02:07:01.071Z,20.40
2023-05-11T02:09:31.341Z,22.80
2023-05-11T02:12:00.545Z,21.40
2023-05-11T02:14:29.350Z,21.40
2023-05-11T02:16:57.303Z,23.23
2023-05-11T02:19:25.785Z,22.10
2023-05-11T02:21:54.332Z,20.50
2023-05-11T02:24:22.289Z,23.47
2023-05-11T02:26:48.961Z,21.40
2023-05-11T02:29:16.193Z,24.37
2023-05-11T02:31:47.194Z,24.33
2023-05-11T02:34:37.206Z,23.27
2023-05-11T02:37:07.215Z,24.67
2023-05-11T02:39:38.128Z,23.47
2023-05-11T02:42:25.667Z,22.70
2023-05-11T02:45:03.238Z,25.90
2023-05-11T02:47:36.702Z,20.60
2023-05-11T02:50:05.838Z,24.43
2023-05-11T02:52:40.374Z,25.67
2023-05-11T02:55:08.435Z,25.90
2023-05-11T02:57:35.677Z,25.37
2023-05-11T03:00:08.351Z,25.77
2023-05-11T03:02:35.389Z,27.30
2023-05-11T03:05:02.531Z,26.13
2023-05-11T03:07:29.600Z,25.80
2023-05-11T03:09:56.302Z,30.20
2023-05-11T03:12:23.788Z,26.97
2023-05-11T03:14:52.337Z,25.07
2023-05-11T03:17:21.061Z,26.63
2023-05-11T03:19:48.677Z,24.23
2023-05-11T03:22:16.381Z,25.30
2023-05-11T03:24:44.642Z,26.13
2023-05-11T03:27:11.659Z,26.70
2023-05-11T03:29:43.672Z,30.80
2023-05-11T03:32:11.538Z,24.87
2023-05-11T03:34:39.167Z,27.60
2023-05-11T03:37:07.004Z,30.50
2023-05-11T03:39:37.047Z,26.97
2023-05-11T03:42:05.641Z,29.63
2023-05-11T03:44:35.001Z,30.77
2023-05-11T03:47:04.142Z,30.40
2023-05-11T03:49:31.486Z,31.53
2023-05-11T03:51:59.330Z,28.37
2023-05-11T03:54:26.995Z,31.17
2023-05-11T03:56:53.859Z,29.20
2023-05-11T03:59:21.103Z,30.73
2023-05-11T04:01:51.560Z,28.27
2023-05-11T04:04:19.142Z,27.70
2023-05-11T04:06:46.185Z,18.80
2023-05-11T04:09:19.051Z,22.33
2023-05-11T04:11:45.657Z,21.50
2023-05-11T04:14:12.341Z,18.97
2023-05-11T04:16:39.217Z,15.73
2023-05-11T04:19:07.263Z,17.70
2023-05-11T04:21:35.786Z,21.73
2023-05-11T04:24:03.420Z,19.07
2023-05-11T04:26:30.125Z,18.27
2023-05-11T04:28:56.818Z,16.40
2023-05-11T04:31:23.510Z,15.90
2023-05-11T04:33:50.270Z,19.37
2023-05-11T04:36:17.038Z,20.23
2023-05-11T04:38:44.142Z,16.07
2023-05-11T04:41:10.843Z,16.30
2023-05-11T04:43:39.481Z,18.20
2023-05-11T04:46:08.406Z,19.47
2023-05-11T04:48:35.154Z,15.80
2023-05-11T04:51:05.669Z,22.03
2023-05-11T04:53:34.439Z,21.07
2023-05-11T04:56:01.108Z,16.20
2023-05-11T04:58:27.848Z,16.67
2023-05-11T05:00:54.553Z,18.53
2023-05-11T05:03:21.273Z,15.30
2023-05-11T05:05:49.006Z,16.87
2023-05-11T05:08:15.722Z,16.23
2023-05-11T05:10:42.424Z,16.27
2023-05-11T05:13:09.187Z,18.07
2023-05-11T05:15:35.836Z,17.30
2023-05-11T05:18:02.610Z,16.77
2023-05-11T05:20:29.847Z,22.47
2023-05-11T05:22:58.861Z,19.77
2023-05-11T05:25:25.749Z,17.90
2023-05-11T05:27:52.584Z,17.43
2023-05-11T05:30:19.840Z,18.33
2023-05-11T05:32:47.799Z,19.87
2023-05-11T05:35:15.130Z,19.83
2023-05-11T05:37:43.005Z,21.07
2023-05-11T05:40:10.118Z,18.90
2023-05-11T05:42:41.949Z,19.83
2023-05-11T05:45:13.974Z,19.20
2023-05-11T05:47:41.851Z,21.63
2023-05-11T05:50:08.986Z,20.43
2023-05-11T05:52:36.248Z,12.50
2023-05-11T05:55:03.495Z,13.90
2023-05-11T05:57:30.633Z,16.67
2023-05-11T05:59:57.555Z,16.60
2023-05-11T06:02:24.252Z,16.67
2023-05-11T06:04:50.971Z,14.03
2023-05-11T06:07:17.766Z,14.03
2023-05-11T06:09:44.462Z,16.13
2023-05-11T06:12:11.166Z,13.20
2023-05-11T06:14:42.640Z,14.17
2023-05-11T06:17:09.571Z,14.87
2023-05-11T06:19:36.840Z,13.50
2023-05-11T06:22:06.346Z,14.57
2023-05-11T06:24:34.558Z,13.77
2023-05-11T06:27:01.621Z,17.73
2023-05-11T06:29:29.043Z,11.63
2023-05-11T06:31:56.635Z,14.60
2023-05-11T06:34:23.650Z,14.00
2023-05-11T06:36:51.643Z,11.23
2023-05-11T06:39:18.425Z,14.57
2023-05-11T06:41:45.260Z,19.50
2023-05-11T06:44:13.005Z,17.13
2023-05-11T06:46:43.353Z,16.60
2023-05-11T06:49:10.115Z,13.43
2023-05-11T06:51:36.822Z,18.07
2023-05-11T06:54:03.736Z,13.67
2023-05-11T06:56:31.850Z,16.20
2023-05-11T06:58:58.715Z,9.60
2023-05-11T07:01:25.460Z,11.13
2023-05-11T07:03:54.979Z,9.80
2023-05-11T07:06:21.756Z,10.17
2023-05-11T07:08:48.490Z,10.87
2023-05-11T07:11:15.534Z,11.63
2023-05-11T07:13:42.411Z,8.43
2023-05-11T07:16:09.106Z,8.70
2023-05-11T07:18:35.754Z,10.00
2023-05-11T07:21:02.441Z,7.67
2023-05-11T07:23:29.076Z,8.33
2023-05-11T07:25:57.467Z,5.90
2023-05-11T07:28:24.568Z,5.93
2023-05-11T07:30:51.426Z,6.80
2023-05-11T07:33:18.123Z,8.47
2023-05-11T07:35:44.899Z,8.80
2023-05-11T07:38:13.366Z,8.63
2023-05-11T07:40:40.199Z,6.30
2023-05-11T07:43:06.912Z,7.47
2023-05-11T07:45:33.625Z,7.33
2023-05-11T07:48:00.377Z,8.67
2023-05-11T07:50:27.330Z,11.20
2023-05-11T07:52:54.198Z,6.17
2023-05-11T07:55:24.843Z,5.73
2023-05-11T07:57:53.167Z,6.60
2023-05-11T08:00:21.071Z,6.17
2023-05-11T08:02:48.243Z,5.07
2023-05-11T08:05:15.124Z,6.53
2023-05-11T08:07:41.886Z,8.23
2023-05-11T08:10:09.241Z,7.00
2023-05-11T08:12:36.867Z,7.33
2023-05-11T08:15:04.578Z,6.73
2023-05-11T08:17:31.854Z,8.67
2023-05-11T08:19:58.519Z,7.73
2023-05-11T08:22:25.119Z,8.60
2023-05-11T08:24:51.789Z,5.93
2023-05-11T08:27:18.496Z,6.80
2023-05-11T08:29:45.306Z,8.47
2023-05-11T08:32:11.960Z,8.53
2023-05-11T08:34:38.730Z,7.53
2023-05-11T08:37:05.544Z,7.30
2023-05-11T08:39:46.525Z,7.10
2023-05-11T08:42:16.512Z,8.13
2023-05-11T08:44:44.237Z,9.37
2023-05-11T08:47:22.680Z,10.30
2023-05-11T08:49:52.396Z,9.80
2023-05-11T08:52:19.344Z,8.57
2023-05-11T08:54:46.721Z,7.40
2023-05-11T08:57:14.451Z,7.30
2023-05-11T08:59:44.457Z,8.13
2023-05-11T09:02:15.802Z,7.10
2023-05-11T09:04:43.132Z,8.03
2023-05-11T09:07:12.020Z,6.10
2023-05-11T09:09:41.433Z,7.63
2023-05-11T09:12:09.682Z,8.20
2023-05-11T09:14:36.551Z,9.60
2023-05-11T09:17:04.370Z,6.73
2023-05-11T09:19:31.542Z,5.60
2023-05-11T09:22:01.200Z,5.50
2023-05-11T09:24:28.320Z,6.07
2023-05-11T09:27:11.777Z,6.20
2023-05-11T09:29:38.462Z,7.80
2023-05-11T09:32:05.581Z,7.93
2023-05-11T09:34:32.283Z,7.97
2023-05-11T09:36:58.990Z,5.17
2023-05-11T09:39:44.730Z,9.60
2023-05-11T09:42:23.656Z,5.10
2023-05-11T09:44:50.396Z,6.23
2023-05-11T09:47:18.914Z,3.70
2023-05-11T09:49:47.062Z,4.00
2023-05-11T09:52:16.131Z,5.27
2023-05-11T09:54:45.157Z,4.10
2023-05-11T09:57:31.153Z,4.33
2023-05-11T09:59:59.787Z,7.90
2023-05-11T10:02:29.465Z,5.07
2023-05-11T10:05:00.982Z,6.03
2023-05-11T10:07:31.745Z,5.40
2023-05-11T10:10:01.473Z,6.63
2023-05-11T10:12:29.221Z,6.73
2023-05-11T10:15:02.770Z,7.37
2023-05-11T10:17:31.755Z,9.23
2023-05-11T10:19:59.938Z,6.93
2023-05-11T10:22:29.300Z,6.70
2023-05-11T10:24:59.877Z,6.80
2023-05-11T10:27:27.367Z,6.13
2023-05-11T10:29:54.189Z,9.50
2023-05-11T10:32:21.202Z,8.83
2023-05-11T10:34:50.206Z,9.77
2023-05-11T10:37:17.811Z,9.23
2023-05-11T10:39:47.836Z,8.00
2023-05-11T10:42:28.810Z,9.33
2023-05-11T10:44:56.083Z,8.27
2023-05-11T10:47:32.320Z,9.70
2023-05-11T10:50:25.820Z,9.10
2023-05-11T10:53:01.812Z,7.27
2023-05-11T10:55:53.607Z,7.23
2023-05-11T10:58:31.980Z,8.13
2023-05-11T11:01:35.776Z,11.97
2023-05-11T11:04:05.414Z,7.97
2023-05-11T11:06:33.549Z,9.00
2023-05-11T11:09:02.794Z,10.63
2023-05-11T11:11:30.850Z,7.30
2023-05-11T11:13:58.977Z,8.67
2023-05-11T11:16:26.180Z,10.50
2023-05-11T11:18:52.951Z,9.73
2023-05-11T11:21:42.349Z,9.10
2023-05-11T11:24:09.093Z,10.90
2023-05-11T11:26:50.480Z,7.30
2023-05-11T11:29:17.348Z,9.20
2023-05-11T11:31:44.079Z,10.07
2023-05-11T11:34:28.825Z,9.30
2023-05-11T11:36:55.528Z,7.53
2023-05-11T11:39:25.279Z,9.47
2023-05-11T11:42:01.142Z,6.87
2023-05-11T11:44:28.258Z,8.00
2023-05-11T11:47:16.854Z,5.97
2023-05-11T11:49:46.356Z,8.13
2023-05-11T11:52:14.731Z,6.57
2023-05-11T11:54:44.185Z,7.00
2023-05-11T11:57:29.693Z,5.37
2023-05-11T11:59:56.530Z,9.67
2023-05-11T12:02:23.501Z,6.30
2023-05-11T12:05:14.221Z,5.00
2023-05-11T12:07:53.952Z,9.23
2023-05-11T12:10:22.370Z,7.20
2023-05-11T12:12:51.316Z,4.77
2023-05-11T12:15:27.321Z,6.60
2023-05-11T12:17:54.749Z,4.80
2023-05-11T12:20:22.022Z,5.67
2023-05-11T12:22:49.876Z,7.03
2023-05-11T12:25:18.154Z,5.67
2023-05-11T12:27:50.585Z,7.83
2023-05-11T12:30:25.203Z,6.77
2023-05-11T12:35:25.250Z,6.70
2023-05-11T12:37:52.151Z,5.20
2023-05-11T12:40:19.059Z,7.03
2023-05-11T12:42:54.877Z,6.27
2023-05-11T12:45:23.494Z,5.87
2023-05-11T12:47:53.494Z,5.50
2023-05-11T12:50:21.652Z,6.40
2023-05-11T12:52:50.259Z,6.10
2023-05-11T12:55:28.811Z,7.27
2023-05-11T12:58:08.917Z,7.97
2023-05-11T13:00:35.785Z,7.53
2023-05-11T13:03:03.001Z,8.40
2023-05-11T13:05:30.224Z,5.80
2023-05-11T13:07:59.672Z,7.90
2023-05-11T13:10:26.963Z,5.20
2023-05-11T13:12:54.435Z,5.07
2023-05-11T13:15:23.352Z,3.87
2023-05-11T13:18:03.539Z,3.83
2023-05-11T13:20:32.828Z,3.43
2023-05-11T13:23:07.979Z,3.93
2023-05-11T13:25:50.416Z,4.37
2023-05-11T13:28:19.254Z,3.40
2023-05-11T13:30:46.974Z,2.93
2023-05-11T13:33:13.883Z,3.00
2023-05-11T13:35:41.765Z,4.67
2023-05-11T13:38:09.420Z,2.43
2023-05-11T13:40:36.657Z,3.20
2023-05-11T13:43:03.427Z,4.63
2023-05-11T13:45:30.184Z,3.93
2023-05-11T13:47:57.065Z,3.70
2023-05-11T13:50:25.285Z,4.77
2023-05-11T13:52:53.164Z,4.30
2023-05-11T13:55:20.943Z,3.93
2023-05-11T13:57:47.893Z,2.90
2023-05-11T14:00:15.488Z,3.33
2023-05-11T14:02:42.251Z,2.50
2023-05-11T14:05:09.257Z,2.67
2023-05-11T14:07:46.788Z,6.23
2023-05-11T14:10:15.855Z,5.40
2023-05-11T14:12:42.621Z,3.07
2023-05-11T14:15:09.846Z,3.43
2023-05-11T14:17:36.685Z,4.60
2023-05-11T14:20:04.472Z,4.83
2023-05-11T14:22:31.241Z,3.97
2023-05-11T14:24:57.914Z,6.43
2023-05-11T14:27:24.658Z,4.93
2023-05-11T14:29:52.113Z,2.77
2023-05-11T14:32:19.616Z,3.03
2023-05-11T14:34:47.823Z,4.97
2023-05-11T14:37:14.663Z,3.63
2023-05-11T14:39:41.635Z,3.10
2023-05-11T14:42:08.763Z,2.53
2023-05-11T14:44:35.636Z,2.93
2023-05-11T14:47:02.411Z,2.67
2023-05-11T14:49:29.113Z,1.73
2023-05-11T14:51:57.577Z,1.10
2023-05-11T14:54:24.309Z,2.53
2023-05-11T14:56:55.797Z,2.00
2023-05-11T14:59:24.336Z,1.47
2023-05-11T15:01:51.280Z,1.37
2023-05-11T15:04:19.459Z,2.33
2023-05-11T15:06:46.226Z,2.60
2023-05-11T15:09:13.514Z,2.23
2023-05-11T15:11:40.497Z,2.40
2023-05-11T15:14:07.212Z,1.87
2023-05-11T15:16:34.106Z,3.60
2023-05-11T15:19:00.991Z,2.53
2023-05-11T15:21:28.073Z,1.83
2023-05-11T15:23:54.796Z,1.87
2023-05-11T15:26:22.304Z,1.57
2023-05-11T15:28:49.904Z,1.53
2023-05-11T15:31:16.691Z,1.80
2023-05-11T15:33:43.666Z,2.00
2023-05-11T15:36:13.072Z,2.27
2023-05-11T15:38:40.232Z,4.13
2023-05-11T15:41:07.741Z,3.33
2023-05-11T15:43:34.829Z,2.23
2023-05-11T15:46:03.498Z,2.57
2023-05-11T15:48:30.294Z,2.10
2023-05-11T15:50:59.627Z,4.33
2023-05-11T15:53:27.204Z,2.77
2023-05-11T15:55:55.377Z,2.47
2023-05-11T15:58:23.220Z,2.57
2023-05-11T16:00:50.112Z,2.90
2023-05-11T16:03:17.150Z,2.93
2023-05-11T16:05:44.750Z,3.57
2023-05-11T16:08:12.003Z,3.30
2023-05-11T16:10:39.015Z,3.93
2023-05-11T16:13:05.820Z,2.83
2023-05-11T16:15:32.926Z,4.70
2023-05-11T16:18:01.501Z,4.67
2023-05-11T16:20:30.767Z,3.43
2023-05-11T16:22:57.457Z,4.67
2023-05-11T16:25:24.202Z,2.40
2023-05-11T16:27:50.948Z,3.80
2023-05-11T16:30:23.125Z,3.70
2023-05-11T16:32:51.592Z,5.40
2023-05-11T16:35:18.426Z,3.77
2023-05-11T16:37:46.629Z,5.97
2023-05-11T16:40:13.475Z,3.63
2023-05-11T16:42:40.136Z,3.00
2023-05-11T16:45:07.180Z,2.63
2023-05-11T16:47:33.908Z,4.20
2023-05-11T16:50:00.820Z,3.17
2023-05-11T16:52:27.593Z,2.87
2023-05-11T16:54:54.653Z,4.87
2023-05-11T16:57:22.626Z,4.57
2023-05-11T16:59:49.355Z,4.23
2023-05-11T17:02:15.981Z,3.07
2023-05-11T17:04:42.780Z,3.87
2023-05-11T17:07:11.460Z,3.50
2023-05-11T17:09:38.083Z,5.87
2023-05-11T17:12:08.389Z,4.00
2023-05-11T17:14:35.082Z,4.77
2023-05-11T17:17:04.126Z,3.20
2023-05-11T17:19:31.213Z,3.47
2023-05-11T17:21:58.672Z,3.63
2023-05-11T17:24:25.540Z,3.40
2023-05-11T17:26:52.212Z,3.00
2023-05-11T17:29:18.896Z,3.50
2023-05-11T17:31:48.636Z,3.67
2023-05-11T17:34:15.952Z,3.17
2023-05-11T17:36:43.179Z,2.50
2023-05-11T17:39:11.012Z,3.70
2023-05-11T17:41:37.835Z,2.97
2023-05-11T17:44:05.087Z,3.40
2023-05-11T17:46:31.865Z,2.00
2023-05-11T17:48:58.559Z,2.00
2023-05-11T17:51:25.250Z,2.73
2023-05-11T17:53:51.992Z,2.23
2023-05-11T17:56:19.156Z,3.07
2023-05-11T17:58:45.877Z,2.77
2023-05-11T18:01:16.703Z,1.87
2023-05-11T18:03:43.875Z,1.93
2023-05-11T18:06:10.815Z,1.80
2023-05-11T18:08:37.527Z,2.37
2023-05-11T18:11:04.607Z,1.30
2023-05-11T18:13:31.567Z,4.43
2023-05-11T18:16:01.060Z,1.67
2023-05-11T18:18:28.048Z,2.03
2023-05-11T18:20:54.903Z,2.00
2023-05-11T18:23:21.614Z,1.70
2023-05-11T18:25:48.519Z,1.67
2023-05-11T18:28:15.212Z,2.20
2023-05-11T18:30:41.840Z,2.67
2023-05-11T18:33:08.587Z,2.03
2023-05-11T18:35:35.998Z,2.67
2023-05-11T18:38:04.621Z,2.93
2023-05-11T18:40:31.388Z,2.80
2023-05-11T18:42:58.012Z,3.67
2023-05-11T18:45:25.038Z,2.63
2023-05-11T18:47:51.730Z,2.53
2023-05-11T18:50:18.747Z,3.37
2023-05-11T18:52:45.707Z,2.03
2023-05-11T18:55:12.775Z,4.60
2023-05-11T18:57:40.438Z,3.50
2023-05-11T19:00:07.921Z,3.30
2023-05-11T19:02:34.859Z,2.80
2023-05-11T19:05:01.635Z,2.40
2023-05-11T19:07:28.556Z,3.23
2023-05-11T19:09:55.391Z,3.30
2023-05-11T19:12:22.468Z,2.57
2023-05-11T19:14:49.116Z,3.93
2023-05-11T19:17:15.802Z,3.57
2023-05-11T19:19:42.454Z,3.93
2023-05-11T19:22:09.428Z,3.17
2023-05-11T19:24:36.208Z,4.43
2023-05-11T19:27:07.113Z,4.07
2023-05-11T19:29:35.375Z,3.73
2023-05-11T19:32:02.878Z,4.50
2023-05-11T19:34:29.646Z,4.23
2023-05-11T19:36:56.357Z,3.10
2023-05-11T19:39:23.148Z,4.07
2023-05-11T19:41:49.868Z,4.20
2023-05-11T19:44:16.541Z,3.30
2023-05-11T19:46:47.059Z,3.23
2023-05-11T19:49:15.181Z,3.23
2023-05-11T19:51:42.403Z,3.90
2023-05-11T19:54:09.503Z,5.60
2023-05-11T19:56:36.205Z,4.27
2023-05-11T19:59:03.781Z,3.00
2023-05-11T20:01:30.642Z,4.03
2023-05-11T20:03:57.494Z,3.40
2023-05-11T20:06:25.450Z,4.40
2023-05-11T20:08:52.726Z,4.83
2023-05-11T20:11:19.658Z,4.90
2023-05-11T20:13:47.815Z,6.10
2023-05-11T20:16:14.963Z,8.57
2023-05-11T20:18:41.844Z,8.10
2023-05-11T20:21:08.635Z,9.97
2023-05-11T20:23:37.220Z,5.47
2023-05-11T20:26:04.600Z,5.20
2023-05-11T20:28:31.854Z,5.87
2023-05-11T20:30:59.048Z,4.40
2023-05-11T20:35:55.512Z,4.33
2023-05-11T20:38:22.408Z,4.23
2023-05-11T20:40:49.065Z,4.40
2023-05-11T20:43:16.583Z,4.77
2023-05-11T20:45:43.673Z,4.23
2023-05-11T20:48:10.923Z,4.20
2023-05-11T20:50:39.294Z,4.47
2023-05-11T20:53:06.118Z,3.40
2023-05-11T20:55:33.008Z,5.40
2023-05-11T20:57:59.832Z,3.53
2023-05-11T21:00:26.415Z,3.50
2023-05-11T21:02:53.203Z,2.87
2023-05-11T21:05:20.080Z,4.00
2023-05-11T21:07:46.877Z,4.47
2023-05-11T21:10:14.012Z,4.30
2023-05-11T21:12:40.669Z,4.30
2023-05-11T21:15:07.889Z,4.03
2023-05-11T21:17:35.667Z,3.80
2023-05-11T21:20:05.136Z,4.33
2023-05-11T21:22:33.362Z,4.40
2023-05-11T21:25:00.237Z,5.20
2023-05-11T21:27:26.974Z,4.10
2023-05-11T21:29:53.632Z,4.53
2023-05-11T21:32:20.228Z,4.93
2023-05-11T21:34:46.875Z,4.67
2023-05-11T21:37:14.687Z,4.77
2023-05-11T21:39:41.581Z,3.83
2023-05-11T21:42:08.187Z,3.30
2023-05-11T21:44:34.837Z,5.27
2023-05-11T21:47:01.498Z,9.07
2023-05-11T21:49:28.319Z,4.40
2023-05-11T21:51:55.046Z,4.33
2023-05-11T21:54:22.389Z,4.07
2023-05-11T21:56:50.169Z,4.23
2023-05-11T21:59:17.773Z,4.50
2023-05-11T22:01:45.360Z,4.40
2023-05-11T22:04:12.068Z,5.57
2023-05-11T22:06:38.862Z,5.23
2023-05-11T22:09:05.480Z,5.17
2023-05-11T22:11:33.906Z,5.00
2023-05-11T22:14:00.709Z,3.87
2023-05-11T22:16:27.662Z,4.80
2023-05-11T22:18:54.327Z,3.70
2023-05-11T22:21:21.102Z,4.40
2023-05-11T22:23:47.853Z,4.00
2023-05-11T22:26:14.588Z,4.07
2023-05-11T22:28:41.301Z,4.40
2023-05-11T22:31:08.155Z,5.03
2023-05-11T22:33:34.891Z,5.07
2023-05-11T22:36:01.500Z,5.80
2023-05-11T22:38:28.427Z,6.13
2023-05-11T22:40:55.065Z,5.03
2023-05-11T22:43:21.929Z,3.80
2023-05-11T22:45:49.345Z,3.50
2023-05-11T22:48:16.643Z,4.53
2023-05-11T22:50:47.328Z,4.40
2023-05-11T22:53:14.757Z,5.20
2023-05-11T22:55:42.071Z,4.70
2023-05-11T22:58:08.684Z,5.43
2023-05-11T23:00:35.804Z,5.30
2023-05-11T23:03:03.807Z,9.00
2023-05-11T23:05:30.702Z,4.80
2023-05-11T23:07:59.712Z,5.43
2023-05-11T23:10:28.492Z,4.50
2023-05-11T23:12:55.879Z,5.83
2023-05-11T23:15:22.555Z,5.80
2023-05-11T23:17:49.262Z,5.43
2023-05-11T23:20:16.840Z,6.17
2023-05-11T23:22:43.683Z,4.80
2023-05-11T23:25:10.760Z,9.43
2023-05-11T23:27:37.487Z,4.87
2023-05-11T23:30:04.945Z,5.40
2023-05-11T23:32:31.859Z,5.47
2023-05-11T23:34:58.711Z,4.50
2023-05-11T23:37:25.541Z,4.70
2023-05-11T23:39:52.699Z,4.27
2023-05-11T23:42:19.445Z,4.37
2023-05-11T23:44:46.272Z,4.50
2023-05-11T23:47:12.988Z,5.07
2023-05-11T23:49:39.617Z,5.93
2023-05-11T23:52:06.563Z,6.17
2023-05-11T23:54:33.899Z,5.03
2023-05-11T23:57:02.047Z,4.47
2023-05-11T23:59:28.734Z,4.73
